createdAt,value
2022-09-16T00:00:14.731Z,50.57
2022-09-16T00:02:59.882Z,51.22
2022-09-16T00:05:43.502Z,51.36
2022-09-16T00:08:26.736Z,52.40
2022-09-16T00:11:09.761Z,52.17
2022-09-16T00:13:52.825Z,52.23
2022-09-16T00:16:36.756Z,53.42
2022-09-16T00:19:21.279Z,53.72
2022-09-16T00:22:04.559Z,53.47
2022-09-16T00:24:49.976Z,54.12
2022-09-16T00:27:33.122Z,53.62
2022-09-16T00:30:16.349Z,54.39
2022-09-16T00:32:59.389Z,53.25
2022-09-16T00:35:43.938Z,54.45
2022-09-16T00:38:26.960Z,53.89
2022-09-16T00:41:15.661Z,53.81
2022-09-16T00:44:00.671Z,53.86
2022-09-16T00:46:47.057Z,53.00
2022-09-16T00:49:32.335Z,53.58
2022-09-16T00:52:18.777Z,53.85
2022-09-16T00:55:06.924Z,53.72
2022-09-16T00:57:50.923Z,53.55
2022-09-16T01:00:34.338Z,53.89
2022-09-16T01:03:18.043Z,54.77
2022-09-16T01:06:01.299Z,56.39
2022-09-16T01:08:46.669Z,55.77
2022-09-16T01:11:29.740Z,55.12
2022-09-16T01:14:30.979Z,54.54
2022-09-16T01:17:23.331Z,54.64
2022-09-16T01:20:45.275Z,52.55
2022-09-16T01:23:50.062Z,53.86
2022-09-16T01:27:17.390Z,53.73
2022-09-16T01:30:33.674Z,54.30
2022-09-16T01:33:24.873Z,54.81
2022-09-16T01:36:27.100Z,55.20
2022-09-16T01:39:21.032Z,54.72
2022-09-16T01:42:21.018Z,54.18
2022-09-16T01:45:10.823Z,54.20
2022-09-16T01:47:59.957Z,55.42
2022-09-16T01:50:47.591Z,54.48
2022-09-16T01:53:36.947Z,55.24
2022-09-16T01:56:25.693Z,56.54
2022-09-16T01:59:10.869Z,55.52
2022-09-16T02:02:00.908Z,54.81
2022-09-16T02:04:50.027Z,54.71
2022-09-16T02:07:36.873Z,54.62
2022-09-16T02:10:26.563Z,55.10
2022-09-16T02:13:14.284Z,55.22
2022-09-16T02:16:03.298Z,55.12
2022-09-16T02:18:53.084Z,56.16
2022-09-16T02:21:43.499Z,55.98
2022-09-16T02:24:31.059Z,55.78
2022-09-16T02:27:18.059Z,55.85
2022-09-16T02:30:06.645Z,54.18
2022-09-16T02:32:56.809Z,54.47
2022-09-16T02:35:42.463Z,53.70
2022-09-16T02:38:32.132Z,55.25
2022-09-16T02:41:15.739Z,55.73
2022-09-16T02:43:58.824Z,54.36
2022-09-16T02:46:55.590Z,56.49
2022-09-16T02:49:44.614Z,57.29
2022-09-16T02:52:37.437Z,56.13
2022-09-16T02:55:30.879Z,56.05
2022-09-16T02:58:14.226Z,57.16
2022-09-16T03:00:59.095Z,57.49
2022-09-16T03:03:42.285Z,57.81
2022-09-16T03:06:26.900Z,57.59
2022-09-16T03:09:12.314Z,58.06
2022-09-16T03:12:11.657Z,58.63
2022-09-16T03:15:29.487Z,58.10
2022-09-16T03:18:31.205Z,58.53
2022-09-16T03:21:31.981Z,58.09
2022-09-16T03:24:25.737Z,58.69
2022-09-16T03:27:14.525Z,57.57
2022-09-16T03:30:05.366Z,57.48
2022-09-16T03:32:55.489Z,56.91
2022-09-16T03:35:44.804Z,56.52
2022-09-16T03:38:29.258Z,57.81
2022-09-16T03:41:14.805Z,57.67
2022-09-16T03:44:04.060Z,56.53
2022-09-16T03:46:47.561Z,56.05
2022-09-16T03:49:32.410Z,56.11
2022-09-16T03:52:17.395Z,55.42
2022-09-16T03:55:00.527Z,56.03
2022-09-16T03:57:43.553Z,56.22
2022-09-16T04:00:29.305Z,56.28
2022-09-16T04:03:12.353Z,57.00
2022-09-16T04:05:57.038Z,57.57
2022-09-16T04:08:41.221Z,57.83
2022-09-16T04:11:24.445Z,58.53
2022-09-16T04:14:11.343Z,58.16
2022-09-16T04:16:56.139Z,57.93
2022-09-16T04:19:41.553Z,58.46
2022-09-16T04:22:24.612Z,58.26
2022-09-16T04:25:09.155Z,57.34
2022-09-16T04:27:52.893Z,57.67
2022-09-16T04:30:36.096Z,56.87
2022-09-16T04:33:21.261Z,56.92
2022-09-16T04:36:05.867Z,57.36
2022-09-16T04:38:50.170Z,56.93
2022-09-16T04:41:34.082Z,56.04
2022-09-16T04:44:17.410Z,56.42
2022-09-16T04:47:01.017Z,55.67
2022-09-16T04:49:45.528Z,56.10
2022-09-16T04:52:32.059Z,55.98
2022-09-16T04:55:15.215Z,55.34
2022-09-16T04:58:00.856Z,55.03
2022-09-16T05:00:43.920Z,54.92
2022-09-16T05:03:27.191Z,54.71
2022-09-16T05:06:17.169Z,54.42
2022-09-16T05:09:04.813Z,53.71
2022-09-16T05:11:47.905Z,54.17
2022-09-16T05:14:31.181Z,54.33
2022-09-16T05:17:33.166Z,54.12
2022-09-16T05:20:17.784Z,53.11
2022-09-16T05:23:04.549Z,52.01
2022-09-16T05:25:47.657Z,51.27
2022-09-16T05:28:30.847Z,51.07
2022-09-16T05:31:19.478Z,49.88
2022-09-16T05:34:13.931Z,49.75
2022-09-16T05:36:57.844Z,49.00
2022-09-16T05:39:42.423Z,47.48
2022-09-16T05:42:25.909Z,46.17
2022-09-16T05:45:10.201Z,45.06
2022-09-16T05:47:53.903Z,44.42
2022-09-16T05:50:52.429Z,45.18
2022-09-16T05:53:36.129Z,44.36
2022-09-16T05:56:22.197Z,43.51
2022-09-16T05:59:05.605Z,42.97
2022-09-16T06:01:50.704Z,41.68
2022-09-16T06:04:33.873Z,37.35
2022-09-16T06:07:18.594Z,34.75
2022-09-16T06:10:02.157Z,31.14
2022-09-16T06:12:46.954Z,28.52
2022-09-16T06:15:33.773Z,26.41
2022-09-16T06:18:23.453Z,25.10
2022-09-16T06:21:12.325Z,23.17
2022-09-16T06:23:58.777Z,22.38
2022-09-16T06:26:47.060Z,22.89
2022-09-16T06:29:52.503Z,24.61
2022-09-16T06:32:35.989Z,23.36
2022-09-16T06:35:19.231Z,24.38
2022-09-16T06:38:02.703Z,24.35
2022-09-16T06:40:45.813Z,23.24
2022-09-16T06:43:29.426Z,22.74
2022-09-16T06:46:16.337Z,22.22
2022-09-16T06:49:05.131Z,19.67
2022-09-16T06:51:49.206Z,18.50
2022-09-16T06:54:32.384Z,17.97
2022-09-16T06:57:15.521Z,17.72
2022-09-16T06:59:59.934Z,17.40
2022-09-16T07:02:44.589Z,16.90
2022-09-16T07:05:27.627Z,16.68
2022-09-16T07:08:10.666Z,18.47
2022-09-16T07:10:58.679Z,20.62
2022-09-16T07:13:45.848Z,20.67
2022-09-16T07:16:28.987Z,18.02
2022-09-16T07:19:13.472Z,17.36
2022-09-16T07:22:00.304Z,17.35
2022-09-16T07:24:43.330Z,17.50
2022-09-16T07:27:26.677Z,17.77
2022-09-16T07:30:10.369Z,17.49
2022-09-16T07:32:57.611Z,16.77
2022-09-16T07:35:42.059Z,16.05
2022-09-16T07:38:25.179Z,15.69
2022-09-16T07:41:11.423Z,15.21
2022-09-16T07:43:55.907Z,15.25
2022-09-16T07:46:39.153Z,16.09
2022-09-16T07:49:22.353Z,14.70
2022-09-16T07:52:06.998Z,13.34
2022-09-16T07:54:50.343Z,14.02
2022-09-16T07:57:33.597Z,14.48
2022-09-16T08:00:17.336Z,14.66
2022-09-16T08:03:01.751Z,15.90
2022-09-16T08:05:45.181Z,15.92
2022-09-16T08:08:30.015Z,16.61
2022-09-16T08:11:14.480Z,16.21
2022-09-16T08:14:00.241Z,17.24
2022-09-16T08:16:43.401Z,17.19
2022-09-16T08:19:26.717Z,16.07
2022-09-16T08:22:09.767Z,14.52
2022-09-16T08:24:54.415Z,14.31
2022-09-16T08:27:38.985Z,14.98
2022-09-16T08:30:22.081Z,14.16
2022-09-16T08:33:07.054Z,14.40
2022-09-16T08:35:59.419Z,14.66
2022-09-16T08:38:43.977Z,17.74
2022-09-16T08:41:49.661Z,17.54
2022-09-16T08:44:52.044Z,18.25
2022-09-16T08:47:46.072Z,20.63
2022-09-16T08:50:33.597Z,22.32
2022-09-16T08:53:21.993Z,22.46
2022-09-16T08:56:08.738Z,24.91
2022-09-16T08:58:56.281Z,25.10
2022-09-16T09:01:44.656Z,24.91
2022-09-16T09:04:28.346Z,25.57
2022-09-16T09:07:21.212Z,26.58
2022-09-16T09:10:19.945Z,27.17
2022-09-16T09:13:15.533Z,28.39
2022-09-16T09:16:15.490Z,28.98
2022-09-16T09:19:14.912Z,28.86
2022-09-16T09:22:06.384Z,28.77
2022-09-16T09:25:03.104Z,27.19
2022-09-16T09:28:02.220Z,28.54
2022-09-16T09:30:57.992Z,28.01
2022-09-16T09:33:55.850Z,28.46
2022-09-16T09:36:54.134Z,29.32
2022-09-16T09:39:58.921Z,28.52
2022-09-16T09:42:50.232Z,29.42
2022-09-16T09:45:37.545Z,30.19
2022-09-16T09:48:23.835Z,30.49
2022-09-16T09:51:18.134Z,31.45
2022-09-16T09:54:08.082Z,31.46
2022-09-16T09:56:54.764Z,31.68
2022-09-16T09:59:44.721Z,32.02
2022-09-16T10:02:27.967Z,32.13
2022-09-16T10:05:23.468Z,33.58
2022-09-16T10:08:20.088Z,33.07
2022-09-16T10:11:15.881Z,34.60
2022-09-16T10:14:01.289Z,34.36
2022-09-16T10:16:50.834Z,35.19
2022-09-16T10:19:40.207Z,34.76
2022-09-16T10:22:26.810Z,36.45
2022-09-16T10:25:26.569Z,35.70
2022-09-16T10:28:21.671Z,36.93
2022-09-16T10:31:08.109Z,37.97
2022-09-16T10:33:51.445Z,41.30
2022-09-16T10:36:36.682Z,46.62
2022-09-16T10:39:26.111Z,49.49
2022-09-16T10:42:21.714Z,54.24
2022-09-16T10:45:15.975Z,56.86
2022-09-16T10:48:05.023Z,59.55
2022-09-16T10:50:57.963Z,58.84
2022-09-16T10:53:44.370Z,60.28
2022-09-16T10:56:30.537Z,63.21
2022-09-16T10:59:16.706Z,61.88
2022-09-16T11:02:14.759Z,61.17
2022-09-16T11:05:07.181Z,63.56
2022-09-16T11:08:01.674Z,64.21
2022-09-16T11:10:51.751Z,62.97
2022-09-16T11:13:45.945Z,64.03
2022-09-16T11:16:50.092Z,61.64
2022-09-16T11:19:44.910Z,59.74
2022-09-16T11:22:37.307Z,58.72
2022-09-16T11:25:38.139Z,58.23
2022-09-16T11:28:55.924Z,56.70
2022-09-16T11:31:53.729Z,56.37
2022-09-16T11:34:54.391Z,55.27
2022-09-16T11:37:44.023Z,53.78
2022-09-16T11:40:36.174Z,53.53
2022-09-16T11:43:46.455Z,50.64
2022-09-16T11:46:40.862Z,46.69
2022-09-16T11:49:44.123Z,45.83
2022-09-16T11:52:42.638Z,43.25
2022-09-16T11:55:42.498Z,43.46
2022-09-16T11:58:37.530Z,47.98
2022-09-16T12:01:31.560Z,49.94
2022-09-16T12:04:22.163Z,50.72
2022-09-16T12:07:14.308Z,49.56
2022-09-16T12:10:03.550Z,48.37
2022-09-16T12:12:52.522Z,44.70
2022-09-16T12:15:42.078Z,44.48
2022-09-16T12:18:32.923Z,43.02
2022-09-16T12:21:23.616Z,41.80
2022-09-16T12:24:16.475Z,42.51
2022-09-16T12:27:07.196Z,43.61
2022-09-16T12:30:07.759Z,43.88
2022-09-16T12:33:00.915Z,44.36
2022-09-16T12:35:51.228Z,46.12
2022-09-16T12:38:34.701Z,51.61
2022-09-16T12:41:36.967Z,54.54
2022-09-16T12:44:47.229Z,55.12
2022-09-16T12:48:05.331Z,56.55
2022-09-16T12:51:00.451Z,57.37
2022-09-16T12:54:01.795Z,58.23
2022-09-16T12:57:07.567Z,58.18
2022-09-16T13:00:07.566Z,58.90
2022-09-16T13:02:54.008Z,59.07
2022-09-16T13:05:40.499Z,60.05
2022-09-16T13:08:26.724Z,60.12
2022-09-16T13:14:35.956Z,62.35
2022-09-16T13:17:29.362Z,62.57
2022-09-16T13:20:17.693Z,65.51
2022-09-16T13:23:08.943Z,63.08
2022-09-16T13:25:59.887Z,67.46
2022-09-16T13:28:44.333Z,65.82
2022-09-16T13:31:34.380Z,69.03
2022-09-16T13:34:19.683Z,68.01
2022-09-16T13:37:02.738Z,70.24
2022-09-16T13:39:50.151Z,72.80
2022-09-16T13:42:33.494Z,71.27
2022-09-16T13:45:33.874Z,69.10
2022-09-16T13:48:23.658Z,69.50
2022-09-16T13:51:17.838Z,68.72
2022-09-16T13:54:04.714Z,66.80
2022-09-16T13:56:57.104Z,64.77
2022-09-16T13:59:59.094Z,65.22
2022-09-16T14:03:12.693Z,65.41
2022-09-16T14:06:24.114Z,62.67
2022-09-16T14:09:18.194Z,62.37
2022-09-16T14:12:11.106Z,60.75
2022-09-16T14:14:54.677Z,61.92
2022-09-16T14:17:42.326Z,62.73
2022-09-16T14:20:26.881Z,62.66
2022-09-16T14:23:20.075Z,63.65
2022-09-16T14:26:12.716Z,63.33
2022-09-16T14:29:03.907Z,63.93
2022-09-16T14:31:47.315Z,63.00
2022-09-16T14:38:01.782Z,65.03
2022-09-16T14:40:51.133Z,64.54
2022-09-16T14:43:44.497Z,66.33
2022-09-16T14:46:28.327Z,66.76
2022-09-16T14:49:18.880Z,65.63
2022-09-16T14:52:27.688Z,66.59
2022-09-16T14:55:20.456Z,64.54
2022-09-16T14:58:05.314Z,66.58
2022-09-16T15:00:52.585Z,67.00
2022-09-16T15:03:46.297Z,68.12
2022-09-16T15:06:35.164Z,68.42
2022-09-16T15:09:24.586Z,68.10
2022-09-16T15:12:14.331Z,67.35
2022-09-16T15:14:59.248Z,68.36
2022-09-16T15:17:43.130Z,68.89
2022-09-16T15:20:41.607Z,68.54
2022-09-16T15:23:28.388Z,67.63
2022-09-16T15:26:18.272Z,66.41
2022-09-16T15:29:03.675Z,66.73
2022-09-16T15:31:50.363Z,64.99
2022-09-16T15:34:33.773Z,66.65
2022-09-16T15:37:35.686Z,66.90
2022-09-16T15:40:35.775Z,65.66
2022-09-16T15:43:22.278Z,65.61
2022-09-16T15:46:11.303Z,66.75
2022-09-16T15:49:00.074Z,67.88
2022-09-16T15:51:48.025Z,67.74
2022-09-16T15:54:37.823Z,66.39
2022-09-16T15:57:28.296Z,67.64
2022-09-16T16:00:15.816Z,67.13
2022-09-16T16:03:11.483Z,67.74
2022-09-16T16:05:58.908Z,68.82
2022-09-16T16:08:47.225Z,69.97
2022-09-16T16:11:30.434Z,70.02
2022-09-16T16:14:13.520Z,70.58
2022-09-16T16:17:12.336Z,71.33
2022-09-16T16:19:57.705Z,71.78
2022-09-16T16:22:43.392Z,72.12
2022-09-16T16:25:26.655Z,72.91
2022-09-16T16:28:09.743Z,73.68
2022-09-16T16:30:52.870Z,74.79
2022-09-16T16:33:35.977Z,75.33
2022-09-16T16:36:20.503Z,75.91
2022-09-16T16:39:05.228Z,75.87
2022-09-16T16:41:48.315Z,77.28
2022-09-16T16:44:34.932Z,76.94
2022-09-16T16:47:18.745Z,77.85
2022-09-16T16:50:02.063Z,78.92
2022-09-16T16:52:45.149Z,77.70
2022-09-16T16:55:29.620Z,78.59
2022-09-16T16:58:12.771Z,79.16
2022-09-16T17:00:55.861Z,78.25
2022-09-16T17:03:41.561Z,78.59
2022-09-16T17:06:24.575Z,79.16
2022-09-16T17:09:12.363Z,78.86
2022-09-16T17:12:01.637Z,79.55
2022-09-16T17:14:44.826Z,80.25
2022-09-16T17:17:31.603Z,80.15
2022-09-16T17:20:15.112Z,80.46
2022-09-16T17:22:58.192Z,80.75
2022-09-16T17:25:42.339Z,81.16
2022-09-16T17:28:26.991Z,79.63
2022-09-16T17:31:11.344Z,81.53
2022-09-16T17:33:55.234Z,79.74
2022-09-16T17:36:40.006Z,80.17
2022-09-16T17:39:23.976Z,81.25
2022-09-16T17:42:07.358Z,80.72
2022-09-16T17:44:51.787Z,81.51
2022-09-16T17:47:35.209Z,81.77
2022-09-16T17:50:22.880Z,82.05
2022-09-16T17:53:06.469Z,81.74
2022-09-16T17:55:50.253Z,81.23
2022-09-16T17:58:34.093Z,80.48
2022-09-16T18:01:23.642Z,81.17
2022-09-16T18:04:07.150Z,80.19
2022-09-16T18:06:51.191Z,80.60
2022-09-16T18:09:34.273Z,80.75
2022-09-16T18:12:17.289Z,81.47
2022-09-16T18:15:00.367Z,82.19
2022-09-16T18:17:44.840Z,81.78
2022-09-16T18:20:27.987Z,82.09
2022-09-16T18:23:11.108Z,81.55
2022-09-16T18:25:54.201Z,81.97
2022-09-16T18:28:58.180Z,82.18
2022-09-16T18:31:42.759Z,82.32
2022-09-16T18:34:32.665Z,82.52
2022-09-16T18:37:23.723Z,82.77
2022-09-16T18:40:08.118Z,84.06
2022-09-16T18:42:51.188Z,84.45
2022-09-16T18:45:34.789Z,84.60
2022-09-16T18:48:17.898Z,84.37
2022-09-16T18:51:02.484Z,84.43
2022-09-16T18:53:46.165Z,84.88
2022-09-16T18:56:30.367Z,83.03
2022-09-16T18:59:23.826Z,84.60
2022-09-16T19:02:08.718Z,84.17
2022-09-16T19:04:53.983Z,85.45
2022-09-16T19:07:39.937Z,85.17
2022-09-16T19:10:23.659Z,86.22
2022-09-16T19:13:07.923Z,85.27
2022-09-16T19:15:51.843Z,84.64
2022-09-16T19:18:36.015Z,84.24
2022-09-16T19:21:22.575Z,84.34
2022-09-16T19:24:14.152Z,84.65
2022-09-16T19:26:57.515Z,85.40
2022-09-16T19:29:40.696Z,85.12
2022-09-16T19:32:23.972Z,84.01
2022-09-16T19:35:08.017Z,83.67
2022-09-16T19:37:51.405Z,83.92
2022-09-16T19:40:36.150Z,83.52
2022-09-16T19:43:21.386Z,83.92
2022-09-16T19:46:06.893Z,84.51
2022-09-16T19:48:51.200Z,84.63
2022-09-16T19:51:37.589Z,84.01
2022-09-16T19:54:24.714Z,83.99
2022-09-16T19:57:11.053Z,84.21
2022-09-16T19:59:55.873Z,83.24
2022-09-16T20:02:39.122Z,84.70
2022-09-16T20:05:23.830Z,83.57
2022-09-16T20:08:07.422Z,84.79
2022-09-16T20:10:50.843Z,84.00
2022-09-16T20:13:41.318Z,85.52
2022-09-16T20:16:26.573Z,86.71
2022-09-16T20:19:13.239Z,86.23
2022-09-16T20:21:56.778Z,85.95
2022-09-16T20:24:40.029Z,86.21
2022-09-16T20:27:23.280Z,87.88
2022-09-16T20:30:10.511Z,86.81
2022-09-16T20:32:53.697Z,87.48
2022-09-16T20:35:36.859Z,85.85
2022-09-16T20:38:20.098Z,86.21
2022-09-16T20:41:06.693Z,85.49
2022-09-16T20:43:50.480Z,85.79
2022-09-16T20:46:36.923Z,83.21
2022-09-16T20:49:25.353Z,84.80
2022-09-16T20:52:09.325Z,85.50
2022-09-16T20:54:52.450Z,83.31
2022-09-16T20:57:35.693Z,83.94
2022-09-16T21:00:18.959Z,83.04
2022-09-16T21:03:04.153Z,83.54
2022-09-16T21:05:47.496Z,83.25
2022-09-16T21:08:33.882Z,83.29
2022-09-16T21:11:19.105Z,83.12
2022-09-16T21:14:03.647Z,83.86
2022-09-16T21:16:48.080Z,83.79
2022-09-16T21:19:32.895Z,84.48
2022-09-16T21:22:16.220Z,84.48
2022-09-16T21:24:59.309Z,84.61
2022-09-16T21:27:42.371Z,85.48
2022-09-16T21:30:25.438Z,86.56
2022-09-16T21:33:08.583Z,86.02
2022-09-16T21:35:54.709Z,85.93
2022-09-16T21:38:38.335Z,87.18
2022-09-16T21:41:22.681Z,86.35
2022-09-16T21:44:06.087Z,86.60
2022-09-16T21:46:49.776Z,86.26
2022-09-16T21:49:33.115Z,86.79
2022-09-16T21:52:17.629Z,87.04
2022-09-16T21:55:00.695Z,86.90
2022-09-16T21:57:43.811Z,86.69
2022-09-16T22:00:26.859Z,87.65
2022-09-16T22:03:10.059Z,88.25
2022-09-16T22:05:53.143Z,88.42
2022-09-16T22:08:37.843Z,89.02
2022-09-16T22:11:24.337Z,90.57
2022-09-16T22:14:07.825Z,90.37
2022-09-16T22:16:50.969Z,90.42
2022-09-16T22:19:34.015Z,91.08
2022-09-16T22:22:17.237Z,91.97
2022-09-16T22:25:01.757Z,92.59
2022-09-16T22:27:44.900Z,93.02
2022-09-16T22:30:27.995Z,95.34
2022-09-16T22:33:12.685Z,95.63
2022-09-16T22:35:55.859Z,95.46
2022-09-16T22:38:39.284Z,95.43
2022-09-16T22:41:25.691Z,96.52
2022-09-16T22:44:09.363Z,96.77
2022-09-16T22:46:52.559Z,95.52
2022-09-16T22:49:35.652Z,95.32
2022-09-16T22:52:18.781Z,94.33
2022-09-16T22:55:01.907Z,94.58
2022-09-16T22:57:46.309Z,93.87
2022-09-16T23:00:29.360Z,94.09
2022-09-16T23:03:12.499Z,93.54
2022-09-16T23:05:56.414Z,92.50
2022-09-16T23:08:41.923Z,92.63
2022-09-16T23:11:28.662Z,92.38
2022-09-16T23:14:15.374Z,93.67
2022-09-16T23:16:58.769Z,92.22
2022-09-16T23:19:41.915Z,93.67
2022-09-16T23:22:24.955Z,93.63
2022-09-16T23:25:08.689Z,94.71
2022-09-16T23:27:52.017Z,93.71
2022-09-16T23:30:36.461Z,94.08
2022-09-16T23:33:19.523Z,94.11
2022-09-16T23:36:03.067Z,94.32
2022-09-16T23:38:46.777Z,94.31
2022-09-16T23:41:30.301Z,94.90
2022-09-16T23:44:15.743Z,96.46
2022-09-16T23:47:00.374Z,95.22
2022-09-16T23:49:43.877Z,95.06
2022-09-16T23:52:26.969Z,94.53
2022-09-16T23:55:11.295Z,93.98
2022-09-16T23:57:54.762Z,93.98
